Canadian Solar Inc CSIQ logo
CSIQ

Canadian Solar Inc

Company

CEO
Xiaohua Qu
City
Guelph
State
Ontario
Sector
Industry
Website
Description

Key Statistics

Beta
0.00
Market Cap
1.81 B
Outstanding Shares
59,997,643
52 Week Low
22.15
52 Week High
46.8

About

Canadian Solar was founded in 2001 in Canada and is one of the world's largest solar technology and renewable energy companies. It is a leading manufacturer of solar photovoltaic modules, provider of solar energy and battery storage solutions, and developer of utility-scale solar power and battery storage projects with a geographically diversified pipeline in various stages of development. Over the past 19 years, Canadian Solar has successfully delivered over 52 GW of premium-quality, solar photovoltaic modules to customers in over 150 countries. Likewise, since entering the project development business in 2010, Canadian Solar has developed, built and connected over 5.7 GWp in over 20 countries across the world. Currently, the Company has around 500 MWp of projects in operation, over 5 GWp of projects under construction or in backlog (late-stage), and an additional 15 GWp of projects in pipeline (mid- to early- stage). Canadian Solar is one of the most bankable companies in the solar and renewable energy industry, having been publicly listed on the NASDAQ since 2006.

Current Funds

Fund Company Shares Market Value Weight Ownership

Fund Holdings History

Date Ticker Fund Ticker Company Shares Market
Value
Weight
2022-06-30 CSIQ CTRU CANADIAN SOLAR INC 4,882 146,899.38 1.11
2022-06-29 CSIQ CTRU CANADIAN SOLAR INC 4,882 155,442.88 1.10
2022-06-28 CSIQ CTRU CANADIAN SOLAR INC 4,882 165,743.90 1.20
2022-06-27 CSIQ CTRU CANADIAN SOLAR INC 4,882 158,079.16 1.13
2022-06-24 CSIQ CTRU CANADIAN SOLAR INC 4,882 158,079.16 1.18
2022-06-23 CSIQ CTRU CANADIAN SOLAR INC 4,882 152,611.32 1.17
2022-06-22 CSIQ CTRU CANADIAN SOLAR INC 4,882 152,416.04 1.17
2022-06-21 CSIQ CTRU CANADIAN SOLAR INC 4,882 149,535.66 1.17
2022-06-17 CSIQ CTRU CANADIAN SOLAR INC 4,882 137,818.86 1.10
2022-06-16 CSIQ CTRU CANADIAN SOLAR INC 4,882 145,385.96 1.11
2022-06-15 CSIQ CTRU CANADIAN SOLAR INC 4,882 143,384.34 1.12
2022-06-14 CSIQ CTRU CANADIAN SOLAR INC 4,882 147,241.12 1.15
2022-06-13 CSIQ CTRU CANADIAN SOLAR INC 4,882 157,883.88 1.16
2022-06-10 CSIQ CTRU CANADIAN SOLAR INC 4,882 166,085.64 1.18
2022-06-09 CSIQ CTRU CANADIAN SOLAR INC 4,882 169,356.58 1.17
2022-06-08 CSIQ CTRU CANADIAN SOLAR INC 4,882 171,309.38 1.17
2022-06-07 CSIQ CTRU CANADIAN SOLAR INC 4,882 173,848.02 1.21
2022-06-06 CSIQ CTRU CANADIAN SOLAR INC 4,882 161,594.20 1.13
2022-06-03 CSIQ CTRU CANADIAN SOLAR INC 4,882 163,205.26 1.11
2022-06-02 CSIQ CTRU CANADIAN SOLAR INC 4,882 157,444.50 1.12
2022-06-01 CSIQ CTRU CANADIAN SOLAR INC 4,882 156,516.92 1.10
2022-05-31 CSIQ CTRU CANADIAN SOLAR INC 4,882 152,806.60 1.06
2022-05-27 CSIQ CTRU CANADIAN SOLAR INC 4,882 147,973.42 1.06
2022-05-26 CSIQ CTRU CANADIAN SOLAR INC 4,882 142,505.58 1.05
2022-05-25 CSIQ CTRU CANADIAN SOLAR INC 4,882 149,486.84 1.13
2022-05-24 CSIQ CTRU CANADIAN SOLAR INC 4,882 142,261.48 1.04
2022-05-23 CSIQ CTRU CANADIAN SOLAR INC 4,882 143,481.98 1.05
2022-05-20 CSIQ CTRU CANADIAN SOLAR INC 4,882 140,406.32 1.03
2022-05-19 CSIQ CTRU CANADIAN SOLAR INC 4,882 133,083.32 0.99
2022-05-18 CSIQ CTRU CANADIAN SOLAR INC 4,882 130,349.40 0.93
2022-05-17 CSIQ CTRU CANADIAN SOLAR INC 4,882 118,290.86 0.86
2022-05-16 CSIQ CTRU CANADIAN SOLAR INC 4,882 118,827.88 0.85
2022-05-13 CSIQ CTRU CANADIAN SOLAR INC 4,882 110,040.28 0.83
2022-05-12 CSIQ CTRU CANADIAN SOLAR INC 5,114 119,156.20 0.88
2022-05-11 CSIQ CTRU CANADIAN SOLAR INC 5,114 131,838.92 0.93
2022-05-10 CSIQ CTRU CANADIAN SOLAR INC 5,114 131,378.66 0.94
2022-05-09 CSIQ CTRU CANADIAN SOLAR INC 5,114 143,805.68 0.97
2022-05-06 CSIQ CTRU CANADIAN SOLAR INC 5,114 149,635.64 0.98
2022-05-05 CSIQ CTRU CANADIAN SOLAR INC 5,114 156,028.14 0.96
2022-05-04 CSIQ CTRU CANADIAN SOLAR INC 5,114 147,845.74 0.94
2022-05-03 CSIQ CTRU CANADIAN SOLAR INC 5,114 142,220.34 0.90
2022-05-02 CSIQ CTRU CANADIAN SOLAR INC 5,114 140,737.28 0.91
2022-04-29 CSIQ CTRU CANADIAN SOLAR INC 5,114 143,498.84 0.90
2022-04-28 CSIQ CTRU CANADIAN SOLAR INC 5,114 142,066.92 0.91
2022-04-27 CSIQ CTRU CANADIAN SOLAR INC 5,114 140,686.14 0.90
2022-04-26 CSIQ CTRU CANADIAN SOLAR INC 5,114 147,078.64 0.90
2022-04-25 CSIQ CTRU CANADIAN SOLAR INC 5,114 151,016.42 0.94
2022-04-22 CSIQ CTRU CANADIAN SOLAR INC 5,114 154,698.50 0.94
2022-04-21 CSIQ CTRU CANADIAN SOLAR INC 5,114 165,898.16 0.97
2022-04-20 CSIQ CTRU CANADIAN SOLAR INC 5,114 175,563.62 1.01
2022-04-19 CSIQ CTRU CANADIAN SOLAR INC 5,114 171,676.98 1.02
2022-04-18 CSIQ CTRU CANADIAN SOLAR INC 5,114 171,370.14 1.00
2022-04-14 CSIQ CTRU CANADIAN SOLAR INC 5,114 175,717.04 1.01
2022-04-13 CSIQ CTRU CANADIAN SOLAR INC 5,114 173,415.74 1.01
2022-04-12 CSIQ CTRU CANADIAN SOLAR INC 5,114 173,978.28 1.01
2022-04-11 CSIQ CTRU CANADIAN SOLAR INC 5,114 172,341.80 1.00
2022-04-08 CSIQ CTRU CANADIAN SOLAR INC 5,114 176,433.00 1.01
2022-04-07 CSIQ CTRU CANADIAN SOLAR INC 5,114 177,302.38 1.01
2022-04-06 CSIQ CTRU CANADIAN SOLAR INC 5,114 181,751.56 1.01
2022-04-05 CSIQ CTRU CANADIAN SOLAR INC 5,114 194,076.30 1.05
2022-04-04 CSIQ CTRU CANADIAN SOLAR INC 5,114 183,183.48 1.01
2022-04-01 CSIQ CTRU CANADIAN SOLAR INC 5,114 180,831.04 1.00
2022-03-31 CSIQ CTRU CANADIAN SOLAR INC 6,801 238,715.10 1.30
2022-03-30 CSIQ CTRU CANADIAN SOLAR INC 6,801 245,652.12 1.31
2022-03-29 CSIQ CTRU CANADIAN SOLAR INC 6,801 242,591.67 1.33
2022-03-28 CSIQ CTRU CANADIAN SOLAR INC 6,801 243,543.81 1.35
2022-03-25 CSIQ CTRU CANADIAN SOLAR INC 6,801 252,929.19 1.39
2022-03-24 CSIQ CTRU CANADIAN SOLAR INC 6,801 245,856.15 1.37
2022-03-23 CSIQ CTRU CANADIAN SOLAR INC 6,801 253,065.21 1.39
2022-03-22 CSIQ CTRU CANADIAN SOLAR INC 6,801 241,775.55 1.36
2022-03-21 CSIQ CTRU CANADIAN SOLAR INC 6,801 238,579.08 1.32
2022-03-18 CSIQ CTRU CANADIAN SOLAR INC 6,801 230,825.94 1.32
2022-03-17 CSIQ CTRU CANADIAN SOLAR INC 6,801 225,521.16 1.33
2022-03-16 CSIQ CTRU CANADIAN SOLAR INC 6,801 208,654.68 1.31
2022-03-15 CSIQ CTRU CANADIAN SOLAR INC 6,801 194,508.60 1.26
2022-03-14 CSIQ CTRU CANADIAN SOLAR INC 6,801 225,521.16 1.41
2022-03-11 CSIQ CTRU CANADIAN SOLAR INC 6,801 237,490.92 1.43
2022-03-10 CSIQ CTRU CANADIAN SOLAR INC 6,801 251,909.04 1.49
2022-03-09 CSIQ CTRU CANADIAN SOLAR INC 6,801 247,556.40 1.53
2022-03-08 CSIQ CTRU CANADIAN SOLAR INC 6,801 216,951.90 1.35
2022-03-07 CSIQ CTRU CANADIAN SOLAR INC 6,801 209,878.86 1.25
2022-03-04 CSIQ CTRU CANADIAN SOLAR INC 6,801 207,974.58 1.20
2022-03-03 CSIQ CTRU CANADIAN SOLAR INC 6,801 211,715.13 1.19
2022-03-02 CSIQ CTRU CANADIAN SOLAR INC 6,801 222,868.77 1.27
2022-03-01 CSIQ CTRU CANADIAN SOLAR INC 6,801 215,319.66 1.21
2022-02-28 CSIQ CTRU CANADIAN SOLAR INC 6,801 202,941.84 1.15
2022-02-25 CSIQ CTRU CANADIAN SOLAR INC 6,801 197,909.10 1.13
2022-02-24 CSIQ CTRU CANADIAN SOLAR INC 6,801 181,110.63 1.09
2022-02-23 CSIQ CTRU CANADIAN SOLAR INC 6,801 180,362.52 1.06
2022-02-22 CSIQ CTRU CANADIAN SOLAR INC 6,801 193,012.38 1.11
2022-02-18 CSIQ CTRU CANADIAN SOLAR INC 6,801 197,229.00 1.10
2022-02-17 CSIQ CTRU CANADIAN SOLAR INC 6,801 200,969.55 1.08
2022-02-16 CSIQ CTRU CANADIAN SOLAR INC 6,801 199,473.33 1.06
2022-02-15 CSIQ CTRU CANADIAN SOLAR INC 6,801 186,075.36 1.02
2022-02-14 CSIQ CTRU CANADIAN SOLAR INC 6,801 187,707.60 1.03
2022-02-11 CSIQ CTRU CANADIAN SOLAR INC 6,801 189,815.91 1.01
2022-02-10 CSIQ CTRU CANADIAN SOLAR INC 6,801 191,788.20 1.00
2022-02-09 CSIQ CTRU CANADIAN SOLAR INC 6,801 185,939.34 1.00
2022-02-08 CSIQ CTRU CANADIAN SOLAR INC 6,801 181,654.71 0.99
2022-02-07 CSIQ CTRU CANADIAN SOLAR INC 6,801 181,314.66 0.99
2022-02-04 CSIQ CTRU CANADIAN SOLAR INC 6,801 175,261.77 0.98
2022-02-03 CSIQ CTRU CANADIAN SOLAR INC 6,801 180,498.54 0.97
2022-02-02 CSIQ CTRU CANADIAN SOLAR INC 6,801 188,999.79 1.00
2022-02-01 CSIQ CTRU CANADIAN SOLAR INC 6,801 190,359.99 1.02
2022-01-31 CSIQ CTRU CANADIAN SOLAR INC 6,801 171,657.24 0.97
2022-01-28 CSIQ CTRU CANADIAN SOLAR INC 6,801 170,501.07 0.99
2022-01-27 CSIQ CTRU CANADIAN SOLAR INC 6,801 176,417.94 1.01
2022-01-26 CSIQ CTRU CANADIAN SOLAR INC 6,801 172,201.32 0.97
2022-01-25 CSIQ CTRU CANADIAN SOLAR INC 6,801 174,173.61 0.95
2022-01-24 CSIQ CTRU CANADIAN SOLAR INC 6,801 171,249.18 0.96
2022-01-21 CSIQ CTRU CANADIAN SOLAR INC 6,801 179,818.44 0.98
2022-01-20 CSIQ CTRU CANADIAN SOLAR INC 6,801 179,546.40 0.97
2022-01-19 CSIQ CTRU CANADIAN SOLAR INC 6,801 185,599.29 0.99
2022-01-18 CSIQ CTRU CANADIAN SOLAR INC 6,801 192,128.25 1.00
2022-01-14 CSIQ CTRU CANADIAN SOLAR INC 6,801 188,795.76 0.97
2022-01-13 CSIQ CTRU CANADIAN SOLAR INC 6,801 202,125.72 1.01
2022-01-12 CSIQ CTRU CANADIAN SOLAR INC 6,801 200,697.51 0.99
2022-01-11 CSIQ CTRU CANADIAN SOLAR INC 6,801 197,909.10 1.00
2022-01-10 CSIQ CTRU CANADIAN SOLAR INC 6,801 202,533.78 1.02
2022-01-07 CSIQ CTRU CANADIAN SOLAR INC 6,801 198,385.17 0.99
2022-01-06 CSIQ CTRU CANADIAN SOLAR INC 6,492 189,306.72 0.99
2022-01-05 CSIQ CTRU CANADIAN SOLAR INC 6,183 192,724.11 1.01
2022-01-04 CSIQ CTRU CANADIAN SOLAR INC 6,183 193,713.39 0.99
2022-01-03 CSIQ CTRU CANADIAN SOLAR INC 6,183 193,466.07 0.99
2021-12-31 CSIQ CTRU CANADIAN SOLAR INC 5,711 179,325.40 0.91
2021-12-30 CSIQ CTRU CANADIAN SOLAR INC 5,711 173,728.62 0.89
2021-12-29 CSIQ CTRU CANADIAN SOLAR INC 5,711 176,184.35 0.90
2021-12-28 CSIQ CTRU CANADIAN SOLAR INC 5,711 176,812.56 0.90
2021-12-27 CSIQ CTRU CANADIAN SOLAR INC 5,711 177,669.21 0.91
2021-12-23 CSIQ CTRU CANADIAN SOLAR INC 5,711 178,697.19 0.92
2021-12-22 CSIQ CTRU CANADIAN SOLAR INC 5,711 181,952.46 0.94
2021-12-21 CSIQ CTRU CANADIAN SOLAR INC 5,711 172,357.98 0.92
2021-12-20 CSIQ CTRU CANADIAN SOLAR INC 5,711 181,952.46 0.94
2021-12-17 CSIQ CTRU CANADIAN SOLAR INC 5,711 172,529.31 0.90
2021-12-16 CSIQ CTRU CANADIAN SOLAR INC 5,641 174,871.00 0.90
2021-12-15 CSIQ CTRU CANADIAN SOLAR INC 5,641 174,758.18 0.92
2021-12-14 CSIQ CTRU CANADIAN SOLAR INC 5,641 185,927.36 0.97
2021-12-13 CSIQ CTRU CANADIAN SOLAR INC 5,641 183,163.27 0.94
2021-12-10 CSIQ CTRU CANADIAN SOLAR INC 5,641 185,588.90 0.94
2021-12-09 CSIQ CTRU CANADIAN SOLAR INC 565 19,272.15 0.95
5 Day
-3.74%
1 Month
-3.87%
3 Month
-16.69%
YTD
-3.84%
6 Month
-1.08%
1 Year
-36.14%
2 Year
58.12%
5 Year
88.18%